Terminal Aerodrome Forecast
Issued by NWS

Home | Current Version | Previous Version | Graphics & Text | Print | Product List | Glossary On
Versions: 1 2 3 4 5 6 7 8 9 10 11 12 13 14 15 16 17
000
FTUS43 KBIS 142300
TAFMOT
TAF
KMOT 142323Z 1500/1524 34005KT P6SM BKN070
     FM150300 VRB03KT P6SM FEW070
     FM150800 24006KT P6SM SKC
     FM151900 26010KT P6SM FEW160=

USA.gov is the U.S. government's official web portal to all federal, state and local government web resources and services.